Time;durP1;ratioP1;P1;durP2;ratioP2;P2;SDS_P1;SDS_P2;PMS_P1;PMS_P2;Temp;Humidity;BMP_temperature;BMP_pressure;BME280_temperature;BME280_humidity;BME280_pressure;Samples;Min_cycle;Max_cycle;Signal;HPM_P1;HPM_P2
2023/06/01 00:41:56;;;;;;;13.27;5.18;;;11.70;99.90;;;;;;5086121;28;20055;-81
2023/06/01 00:44:22;;;;;;;13.95;5.53;;;11.80;99.90;;;;;;5100200;28;20056;-81
2023/06/01 00:46:49;;;;;;;12.93;4.40;;;11.70;99.90;;;;;;5098852;28;20039;-81
2023/06/01 00:49:15;;;;;;;12.27;4.90;;;11.80;99.90;;;;;;5099070;28;20052;-81
2023/06/01 00:51:40;;;;;;;10.18;4.70;;;11.80;99.90;;;;;;5100131;28;20367;-81
2023/06/01 00:54:07;;;;;;;12.95;4.32;;;11.80;99.90;;;;;;5099198;28;20390;-91
2023/06/01 00:56:35;;;;;;;9.02;3.83;;;11.80;99.90;;;;;;5098766;28;20059;-80
2023/06/01 00:59:01;;;;;;;15.30;3.97;;;11.80;99.90;;;;;;5098915;28;20052;-81
2023/06/01 01:01:26;;;;;;;6.80;3.15;;;11.90;99.90;;;;;;5098648;28;20039;-80
2023/06/01 01:03:57;;;;;;;7.82;2.95;;;11.80;99.90;;;;;;5098599;28;20395;-81
2023/06/01 01:06:30;;;;;;;11.43;3.10;;;11.80;99.90;;;;;;5099078;28;20123;-81
2023/06/01 01:09:12;;;;;;;9.32;2.90;;;11.80;99.90;;;;;;5099937;28;20514;-81
2023/06/01 01:11:46;;;;;;;12.75;3.00;;;11.70;99.90;;;;;;5098940;28;20128;-81
2023/06/01 01:14:21;;;;;;;9.63;3.58;;;11.80;99.90;;;;;;5099416;28;20059;-81
2023/06/01 01:17:02;;;;;;;8.02;2.65;;;11.80;99.90;;;;;;5098964;28;20059;-80
2023/06/01 01:19:50;;;;;;;12.52;3.22;;;11.80;99.90;;;;;;5096926;28;20113;-81
2023/06/01 01:22:41;;;;;;;7.47;2.63;;;11.80;99.90;;;;;;5095318;28;20055;-81
2023/06/01 01:25:13;;;;;;;7.20;2.72;;;11.70;99.90;;;;;;5095481;28;20056;-81
2023/06/01 01:28:07;;;;;;;9.70;2.67;;;11.80;99.90;;;;;;5095275;28;20399;-81
2023/06/01 01:30:40;;;;;;;10.02;2.95;;;11.80;99.90;;;;;;5095419;28;20055;-81
2023/06/01 01:33:06;;;;;;;5.55;2.20;;;11.80;99.90;;;;;;5095399;28;20119;-82
2023/06/01 01:35:33;;;;;;;8.55;4.13;;;11.70;99.90;;;;;;5096617;28;20115;-81
2023/06/01 01:37:58;;;;;;;6.78;2.80;;;11.80;99.90;;;;;;5094837;28;20266;-81
2023/06/01 01:40:24;;;;;;;8.40;2.97;;;11.70;99.90;;;;;;5096403;28;20044;-80
2023/06/01 01:42:52;;;;;;;6.38;2.92;;;11.70;99.90;;;;;;5095946;28;20138;-80
2023/06/01 01:45:19;;;;;;;8.30;3.17;;;11.70;99.90;;;;;;5096274;28;20048;-80
2023/06/01 01:48:20;;;;;;;11.68;3.80;;;11.70;99.90;;;;;;5095155;28;20048;-80
2023/06/01 01:50:58;;;;;;;9.15;3.60;;;11.80;99.90;;;;;;5094440;28;20048;-80
2023/06/01 01:53:26;;;;;;;7.22;3.13;;;11.80;99.90;;;;;;5094987;28;20109;-80
2023/06/01 01:55:53;;;;;;;7.13;2.80;;;11.80;99.90;;;;;;5094978;28;20047;-80
2023/06/01 01:58:19;;;;;;;9.30;3.00;;;11.80;99.90;;;;;;5095986;28;20122;-80
2023/06/01 02:00:46;;;;;;;7.93;3.10;;;11.80;99.90;;;;;;5094645;28;20052;-81
2023/06/01 02:03:16;;;;;;;8.63;3.10;;;11.80;99.90;;;;;;5096255;28;20135;-81
2023/06/01 02:05:42;;;;;;;7.28;3.05;;;11.80;99.90;;;;;;5094440;28;20523;-81
2023/06/01 02:08:08;;;;;;;8.35;3.15;;;11.80;99.90;;;;;;5094460;28;20040;-81
2023/06/01 02:10:34;;;;;;;8.98;2.35;;;11.80;99.90;;;;;;5095580;28;20047;-82
2023/06/01 02:12:59;;;;;;;8.65;2.60;;;11.80;99.90;;;;;;5094723;28;20063;-82
2023/06/01 02:15:25;;;;;;;7.70;2.58;;;11.70;99.90;;;;;;5094403;28;20448;-82
2023/06/01 02:17:51;;;;;;;8.75;2.65;;;11.80;99.90;;;;;;5094400;28;20067;-82
2023/06/01 02:20:17;;;;;;;5.80;2.85;;;11.80;99.90;;;;;;5095630;28;20055;-82
2023/06/01 02:22:42;;;;;;;4.95;2.70;;;11.80;99.90;;;;;;5095292;28;20035;-81
2023/06/01 02:25:08;;;;;;;10.23;3.10;;;11.80;99.90;;;;;;5094105;28;20093;-81
2023/06/01 02:27:34;;;;;;;9.75;2.88;;;11.80;99.90;;;;;;5094169;28;20036;-80
2023/06/01 02:30:00;;;;;;;9.63;2.92;;;11.80;99.90;;;;;;5095133;28;20036;-81
2023/06/01 02:32:26;;;;;;;5.20;2.65;;;11.80;99.90;;;;;;5094163;28;20390;-81
2023/06/01 02:34:52;;;;;;;8.10;3.10;;;11.80;99.90;;;;;;5094144;28;20044;-81
2023/06/01 02:37:17;;;;;;;7.65;2.90;;;11.80;99.90;;;;;;5095285;28;20448;-81
2023/06/01 02:39:47;;;;;;;12.27;3.97;;;11.80;99.90;;;;;;5095142;28;20089;-81
2023/06/01 02:42:13;;;;;;;9.95;2.92;;;11.80;99.90;;;;;;5093648;28;20126;-81
2023/06/01 02:44:41;;;;;;;9.00;3.13;;;11.80;99.90;;;;;;5093790;28;20131;-82
2023/06/01 02:47:07;;;;;;;9.30;3.40;;;11.90;99.90;;;;;;5093625;28;20044;-81
2023/06/01 02:49:33;;;;;;;9.70;3.38;;;11.90;99.90;;;;;;5093599;28;20048;-80
2023/06/01 02:51:58;;;;;;;8.15;3.60;;;11.80;99.90;;;;;;5093618;28;20136;-81
2023/06/01 02:54:24;;;;;;;12.38;3.67;;;11.80;99.90;;;;;;5100982;28;20048;-81
2023/06/01 02:56:50;;;;;;;6.60;2.88;;;11.90;99.90;;;;;;5097129;28;20114;-81
2023/06/01 02:59:21;;;;;;;9.98;4.35;;;11.80;99.90;;;;;;5096696;28;20508;-81
2023/06/01 03:01:48;;;;;;;9.30;3.58;;;11.90;99.90;;;;;;5096896;28;20083;-81
2023/06/01 03:04:14;;;;;;;6.47;3.50;;;11.90;99.90;;;;;;5096831;28;20047;-82
2023/06/01 03:06:40;;;;;;;16.48;3.80;;;11.80;99.90;;;;;;5114901;28;20048;-82
2023/06/01 03:09:12;;;;;;;14.73;4.05;;;11.90;99.90;;;;;;5096811;28;20040;-82
2023/06/01 03:11:40;;;;;;;7.85;3.53;;;11.80;99.90;;;;;;5114721;28;20043;-81
2023/06/01 03:14:06;;;;;;;8.32;3.50;;;11.80;99.90;;;;;;5114769;28;20063;-83
2023/06/01 03:16:31;;;;;;;9.40;3.42;;;11.80;99.90;;;;;;5096528;28;20458;-82
2023/06/01 03:18:58;;;;;;;14.25;3.63;;;11.80;99.90;;;;;;5096263;28;20044;-81
2023/06/01 03:21:24;;;;;;;8.73;3.20;;;11.70;99.90;;;;;;5114320;28;20479;-82
2023/06/01 03:23:59;;;;;;;9.20;3.45;;;11.80;99.90;;;;;;5095567;28;20062;-82
2023/06/01 03:26:28;;;;;;;9.50;3.40;;;11.80;99.90;;;;;;5113905;28;20062;-82
2023/06/01 03:28:53;;;;;;;7.60;3.42;;;11.80;99.90;;;;;;5113233;28;20036;-81
2023/06/01 03:31:19;;;;;;;8.30;3.47;;;11.80;99.90;;;;;;5096066;28;20043;-82
2023/06/01 03:33:54;;;;;;;6.85;3.05;;;11.80;99.90;;;;;;5096054;28;20105;-81
2023/06/01 03:36:20;;;;;;;7.30;3.30;;;11.80;99.90;;;;;;5096252;28;20043;-82
2023/06/01 03:38:45;;;;;;;7.25;3.60;;;11.80;99.90;;;;;;5095918;28;20506;-82
2023/06/01 03:41:11;;;;;;;11.23;4.05;;;11.80;99.90;;;;;;5095638;28;20047;-82
2023/06/01 03:43:40;;;;;;;7.35;3.22;;;11.70;99.90;;;;;;5113823;28;20046;-81
2023/06/01 03:46:05;;;;;;;7.95;3.65;;;11.70;99.90;;;;;;5096258;28;20153;-82
2023/06/01 03:48:31;;;;;;;11.95;4.05;;;11.70;99.90;;;;;;5096054;28;20487;-82
2023/06/01 03:51:00;;;;;;;7.25;2.97;;;11.80;99.90;;;;;;5096028;28;20459;-82
2023/06/01 03:53:26;;;;;;;7.97;3.05;;;11.80;99.90;;;;;;5113870;28;20071;-82
2023/06/01 03:55:52;;;;;;;7.65;2.90;;;11.80;99.90;;;;;;5095607;28;20079;-82
2023/06/01 03:58:19;;;;;;;9.20;2.90;;;11.70;99.90;;;;;;5096109;28;20073;-82
2023/06/01 04:00:46;;;;;;;6.70;2.75;;;11.70;99.90;;;;;;5095789;28;20047;-82
2023/06/01 04:03:13;;;;;;;8.18;2.90;;;11.70;99.90;;;;;;5095922;28;20046;-82
2023/06/01 04:05:39;;;;;;;9.23;3.33;;;11.80;99.90;;;;;;5095603;28;20051;-81
2023/06/01 04:08:04;;;;;;;7.00;3.05;;;11.70;99.90;;;;;;5095793;28;20138;-81
2023/06/01 04:10:33;;;;;;;9.68;3.10;;;11.70;99.90;;;;;;5113971;28;20047;-81
2023/06/01 04:12:59;;;;;;;8.32;3.50;;;11.80;99.90;;;;;;5095548;28;20059;-80
2023/06/01 04:15:25;;;;;;;8.93;2.70;;;11.80;99.90;;;;;;5113895;28;20046;-81
2023/06/01 04:17:50;;;;;;;8.88;3.28;;;11.90;99.90;;;;;;5095517;28;20528;-81
2023/06/01 04:20:17;;;;;;;8.43;3.30;;;11.80;99.90;;;;;;5113780;28;20044;-81
2023/06/01 04:22:45;;;;;;;8.43;2.83;;;11.80;99.90;;;;;;5113554;28;20486;-81
2023/06/01 04:25:16;;;;;;;8.65;3.85;;;11.90;99.90;;;;;;5095614;28;20055;-81
2023/06/01 04:27:47;;;;;;;7.78;3.13;;;11.90;99.90;;;;;;5095836;28;20044;-82
2023/06/01 04:30:16;;;;;;;7.75;3.13;;;11.90;99.90;;;;;;5094967;28;20070;-81
2023/06/01 04:32:44;;;;;;;8.25;3.15;;;11.90;99.90;;;;;;5095343;28;20040;-81
2023/06/01 04:35:10;;;;;;;10.00;3.85;;;11.90;99.90;;;;;;5095274;28;20618;-81
2023/06/01 04:37:39;;;;;;;11.20;3.33;;;11.90;99.90;;;;;;5095405;28;20146;-81
2023/06/01 04:40:09;;;;;;;10.13;3.05;;;11.90;99.90;;;;;;5095620;28;20047;-86
2023/06/01 04:42:36;;;;;;;8.35;3.10;;;11.80;99.90;;;;;;5095279;28;20055;-81
2023/06/01 04:45:07;;;;;;;8.25;3.05;;;11.90;99.90;;;;;;5095317;28;20044;-81
2023/06/01 04:47:37;;;;;;;9.60;3.13;;;11.90;99.90;;;;;;5095600;28;20091;-82
2023/06/01 04:50:09;;;;;;;9.80;3.20;;;11.90;99.90;;;;;;5113733;28;20035;-80
2023/06/01 04:52:36;;;;;;;6.78;3.17;;;11.90;99.90;;;;;;5095257;28;20043;-81
2023/06/01 04:55:07;;;;;;;8.18;2.92;;;11.90;99.90;;;;;;5115678;28;20459;-80
2023/06/01 04:57:35;;;;;;;7.93;2.72;;;11.90;99.90;;;;;;5099016;28;20470;-80
2023/06/01 05:00:08;;;;;;;9.93;3.10;;;12.00;99.90;;;;;;5099222;28;20436;-80
2023/06/01 05:02:34;;;;;;;9.98;2.50;;;12.00;99.90;;;;;;5098990;28;20043;-80
2023/06/01 05:04:59;;;;;;;9.65;3.50;;;12.00;99.90;;;;;;5116937;28;20138;-79
2023/06/01 05:07:28;;;;;;;7.43;3.10;;;12.00;99.90;;;;;;5098936;28;20047;-80
2023/06/01 05:09:54;;;;;;;12.40;2.85;;;11.90;99.90;;;;;;5099016;28;20390;-80
2023/06/01 05:12:19;;;;;;;7.35;2.83;;;12.00;99.90;;;;;;5099053;28;20055;-81
2023/06/01 05:14:45;;;;;;;7.50;2.60;;;11.90;99.90;;;;;;5098854;28;20047;-82
2023/06/01 05:17:11;;;;;;;6.60;2.63;;;11.90;99.90;;;;;;5117491;28;20062;-81
2023/06/01 05:19:36;;;;;;;11.07;3.40;;;11.90;99.90;;;;;;5116875;28;20050;-81
2023/06/01 05:22:05;;;;;;;6.55;2.55;;;12.00;99.90;;;;;;5098804;28;20040;-82
2023/06/01 05:24:30;;;;;;;8.32;2.47;;;12.00;99.90;;;;;;5116851;28;20047;-82
2023/06/01 05:26:56;;;;;;;10.73;2.60;;;11.90;99.90;;;;;;5098667;28;20043;-81
2023/06/01 05:29:22;;;;;;;8.82;2.45;;;12.00;99.90;;;;;;5098448;28;20604;-81
2023/06/01 05:31:50;;;;;;;11.52;2.67;;;12.00;99.90;;;;;;5098585;28;20135;-82
2023/06/01 05:34:16;;;;;;;6.57;2.33;;;12.00;99.90;;;;;;5098298;28;20047;-81
2023/06/01 05:36:41;;;;;;;9.00;2.17;;;12.00;99.90;;;;;;5098397;28;20048;-81
2023/06/01 05:39:09;;;;;;;9.88;2.00;;;12.10;99.90;;;;;;5098787;28;20097;-82
2023/06/01 05:41:35;;;;;;;8.38;2.65;;;12.10;99.90;;;;;;5116359;28;20047;-81
2023/06/01 05:44:00;;;;;;;4.43;1.70;;;12.00;99.90;;;;;;5116438;28;20043;-81
2023/06/01 05:46:26;;;;;;;5.85;1.67;;;12.10;99.90;;;;;;5095836;28;20062;-82
2023/06/01 05:48:52;;;;;;;7.88;2.28;;;12.00;99.90;;;;;;5116392;28;20078;-81
2023/06/01 05:51:17;;;;;;;4.78;1.73;;;12.00;99.90;;;;;;5097932;28;20108;-81
2023/06/01 05:53:43;;;;;;;6.85;1.90;;;12.00;99.90;;;;;;5097969;28;20130;-81
2023/06/01 05:56:09;;;;;;;7.00;2.00;;;12.10;99.90;;;;;;5097928;28;20035;-81
2023/06/01 05:58:34;;;;;;;6.97;2.17;;;12.10;99.90;;;;;;5097867;28;20051;-81
2023/06/01 06:01:00;;;;;;;8.20;2.13;;;12.00;99.90;;;;;;5097791;28;20093;-81
2023/06/01 06:03:27;;;;;;;6.53;2.10;;;12.00;99.90;;;;;;5097713;28;20107;-81
2023/06/01 06:05:53;;;;;;;8.75;2.13;;;12.00;99.90;;;;;;5097192;28;20486;-82
2023/06/01 06:08:19;;;;;;;3.97;1.55;;;12.00;99.90;;;;;;5115978;28;20028;-82
2023/06/01 06:10:45;;;;;;;6.53;1.85;;;12.10;99.90;;;;;;5097769;28;20047;-81
2023/06/01 06:13:11;;;;;;;11.85;2.10;;;12.10;99.90;;;;;;5115961;28;20130;-81
2023/06/01 06:15:36;;;;;;;6.18;1.77;;;12.20;99.90;;;;;;5097800;28;20474;-82
2023/06/01 06:18:02;;;;;;;7.10;2.22;;;12.20;99.90;;;;;;5097716;28;20058;-81
2023/06/01 06:20:28;;;;;;;5.07;1.63;;;12.10;99.90;;;;;;5097651;28;20047;-81
2023/06/01 06:22:53;;;;;;;5.82;1.83;;;12.10;99.90;;;;;;5115806;28;20482;-81
2023/06/01 06:25:20;;;;;;;7.63;1.92;;;12.10;99.90;;;;;;5097413;28;20050;-83
2023/06/01 06:27:46;;;;;;;5.25;1.63;;;12.20;99.90;;;;;;5115746;28;20047;-83
2023/06/01 06:30:12;;;;;;;33.47;4.20;;;12.20;99.90;;;;;;5097188;28;20051;-82
2023/06/01 06:32:38;;;;;;;10.98;1.75;;;12.20;99.90;;;;;;5097375;28;20044;-83
2023/06/01 06:35:04;;;;;;;11.23;1.60;;;12.30;99.90;;;;;;5097557;28;20372;-82
2023/06/01 06:37:30;;;;;;;6.63;2.42;;;12.20;99.90;;;;;;5097308;28;20086;-82
2023/06/01 06:39:56;;;;;;;10.63;2.40;;;12.30;99.90;;;;;;5096971;28;20047;-82
2023/06/01 06:42:23;;;;;;;12.30;1.70;;;12.20;99.90;;;;;;5096775;28;20105;-82
2023/06/01 06:44:48;;;;;;;6.15;1.40;;;12.20;99.90;;;;;;5115273;28;20046;-82
2023/06/01 06:47:18;;;;;;;5.18;1.25;;;12.30;99.90;;;;;;5096932;28;20048;-82
2023/06/01 06:49:44;;;;;;;5.55;1.33;;;12.30;99.90;;;;;;5095726;28;20048;-79
2023/06/01 06:52:10;;;;;;;2.40;1.17;;;12.30;99.90;;;;;;5114801;28;20039;-82
2023/06/01 06:54:38;;;;;;;3.47;0.70;;;12.40;99.90;;;;;;5096513;28;20127;-81
2023/06/01 06:57:04;;;;;;;3.75;0.73;;;12.40;99.90;;;;;;5096468;28;20054;-81
2023/06/01 06:59:33;;;;;;;5.47;1.08;;;12.40;99.90;;;;;;5096827;28;20044;-80
2023/06/01 07:01:58;;;;;;;4.80;1.00;;;12.50;99.90;;;;;;5096782;28;20103;-81
2023/06/01 07:04:24;;;;;;;3.20;0.98;;;12.50;99.90;;;;;;5096398;28;20071;-80
2023/06/01 07:06:51;;;;;;;3.63;1.10;;;12.50;99.90;;;;;;5114504;28;20048;-80
2023/06/01 07:09:17;;;;;;;6.05;1.58;;;12.50;99.90;;;;;;5114426;28;20055;-80
2023/06/01 07:11:42;;;;;;;6.03;1.33;;;12.60;99.90;;;;;;5096174;28;20040;-81
2023/06/01 07:14:08;;;;;;;4.72;1.50;;;12.60;99.90;;;;;;5096452;28;20187;-81
2023/06/01 07:16:34;;;;;;;8.65;1.73;;;12.60;99.90;;;;;;5095597;28;20054;-80
2023/06/01 07:19:00;;;;;;;9.80;1.75;;;12.60;99.90;;;;;;5096130;28;20096;-81
2023/06/01 07:21:25;;;;;;;6.70;2.35;;;12.60;99.90;;;;;;5114583;28;20046;-81
2023/06/01 07:23:51;;;;;;;8.00;2.70;;;12.50;99.90;;;;;;5114118;28;20457;-81
2023/06/01 07:26:17;;;;;;;9.02;2.90;;;12.50;99.90;;;;;;5096130;28;20051;-78
2023/06/01 07:28:44;;;;;;;11.52;3.13;;;12.50;99.90;;;;;;5114221;28;20047;-85
2023/06/01 07:31:09;;;;;;;10.20;2.85;;;12.50;99.90;;;;;;5096207;28;20107;-80
2023/06/01 07:33:36;;;;;;;9.77;2.58;;;12.50;99.90;;;;;;5095893;28;20406;-78
2023/06/01 07:36:02;;;;;;;9.50;2.83;;;12.50;99.90;;;;;;5113998;28;20482;-79
2023/06/01 07:38:27;;;;;;;11.18;3.15;;;12.50;99.90;;;;;;5095797;28;20052;-79
2023/06/01 07:40:54;;;;;;;10.52;3.35;;;12.50;99.90;;;;;;5114130;28;20047;-78
2023/06/01 07:43:20;;;;;;;8.25;2.95;;;12.50;99.90;;;;;;5113801;28;20505;-79
2023/06/01 07:45:46;;;;;;;7.65;2.42;;;12.60;99.90;;;;;;5096059;28;20054;-80
2023/06/01 07:48:11;;;;;;;10.60;3.03;;;12.60;99.90;;;;;;5095960;28;20047;-80
2023/06/01 07:50:38;;;;;;;6.63;2.38;;;12.60;99.90;;;;;;5095935;28;20512;-80
2023/06/01 07:53:03;;;;;;;8.18;2.63;;;12.60;99.90;;;;;;5095414;28;20051;-86
2023/06/01 07:55:29;;;;;;;11.05;2.42;;;12.60;99.90;;;;;;5095710;28;20055;-79
2023/06/01 07:57:55;;;;;;;6.45;2.10;;;12.60;99.90;;;;;;5113721;28;20043;-79
2023/06/01 08:00:22;;;;;;;8.88;2.35;;;12.60;99.90;;;;;;5114014;28;20093;-80
2023/06/01 08:02:47;;;;;;;8.77;2.33;;;12.60;99.90;;;;;;5095376;28;20050;-79
2023/06/01 08:05:17;;;;;;;6.13;2.30;;;12.70;99.90;;;;;;5113959;28;20040;-80
2023/06/01 08:07:43;;;;;;;11.85;2.38;;;12.70;99.90;;;;;;5095418;28;20048;-78
2023/06/01 08:10:10;;;;;;;11.20;2.80;;;12.70;99.90;;;;;;5113846;28;20043;-79
2023/06/01 08:12:36;;;;;;;9.05;2.65;;;12.70;99.90;;;;;;5113856;28;20036;-79
2023/06/01 08:15:03;;;;;;;13.98;3.60;;;12.70;99.90;;;;;;5095556;28;20047;-79
2023/06/01 08:17:31;;;;;;;11.52;3.35;;;12.70;99.90;;;;;;5113740;28;20039;-80
2023/06/01 08:19:56;;;;;;;11.32;2.65;;;12.70;99.90;;;;;;5095627;28;20043;-78
2023/06/01 08:22:23;;;;;;;10.20;2.70;;;12.80;99.90;;;;;;5113505;28;20044;-79
2023/06/01 08:24:51;;;;;;;10.32;2.88;;;12.90;99.90;;;;;;5113470;28;20071;-79
2023/06/01 08:27:18;;;;;;;11.90;2.97;;;12.80;99.90;;;;;;5113465;28;20505;-77
2023/06/01 08:29:47;;;;;;;11.73;3.33;;;12.90;99.90;;;;;;5098794;28;20047;-79
2023/06/01 08:32:13;;;;;;;10.77;3.25;;;13.00;99.90;;;;;;5099553;28;20474;-78
2023/06/01 08:34:39;;;;;;;10.40;2.67;;;12.90;99.90;;;;;;5117463;28;20108;-78
2023/06/01 08:37:05;;;;;;;11.60;2.35;;;12.90;99.90;;;;;;5099222;28;20574;-79
2023/06/01 08:39:31;;;;;;;10.57;3.08;;;12.90;99.90;;;;;;5099162;28;20058;-79
2023/06/01 08:42:13;;;;;;;11.43;2.47;;;12.90;99.90;;;;;;5099011;28;20058;-78
2023/06/01 08:44:44;;;;;;;8.80;3.10;;;13.00;99.90;;;;;;5099092;28;20048;-78
2023/06/01 08:47:10;;;;;;;8.23;2.42;;;12.90;99.90;;;;;;5099172;28;20089;-79
2023/06/01 08:49:36;;;;;;;9.70;2.58;;;13.00;99.90;;;;;;5099287;28;20079;-78
2023/06/01 08:52:07;;;;;;;8.88;2.72;;;12.90;99.90;;;;;;5099161;28;20173;-78
2023/06/01 08:54:33;;;;;;;11.07;2.35;;;13.00;99.90;;;;;;5117199;28;20498;-78
2023/06/01 08:57:06;;;;;;;10.00;2.28;;;13.00;99.90;;;;;;5098847;28;20127;-79
2023/06/01 08:59:33;;;;;;;6.22;2.10;;;13.00;99.90;;;;;;5099041;28;20043;-78
2023/06/01 09:01:59;;;;;;;11.20;3.00;;;13.00;99.90;;;;;;5099118;28;20048;-78
2023/06/01 09:04:33;;;;;;;8.93;2.88;;;13.00;99.90;;;;;;5098766;28;20406;-79
2023/06/01 09:06:59;;;;;;;9.80;2.78;;;13.10;99.90;;;;;;5099039;28;20044;-79
2023/06/01 09:09:24;;;;;;;11.65;2.13;;;13.10;99.90;;;;;;5098515;28;20047;-82
2023/06/01 09:12:21;;;;;;;11.50;2.60;;;13.20;99.90;;;;;;5081254;28;20048;-78
2023/06/01 09:14:47;;;;;;;9.15;2.47;;;13.10;99.90;;;;;;5078321;28;20051;-78
2023/06/01 09:17:14;;;;;;;10.98;3.75;;;13.10;99.90;;;;;;5078265;28;20044;-78
2023/06/01 09:19:44;;;;;;;8.93;1.80;;;13.10;99.90;;;;;;5096298;28;20032;-79
2023/06/01 09:22:11;;;;;;;21.83;3.00;;;13.30;99.90;;;;;;5078176;28;20043;-78
2023/06/01 09:24:37;;;;;;;11.93;2.55;;;13.40;99.90;;;;;;5077970;28;20479;-77
2023/06/01 09:27:03;;;;;;;14.88;2.50;;;13.30;99.90;;;;;;5077981;28;20097;-79
2023/06/01 09:29:29;;;;;;;7.80;2.40;;;13.30;99.90;;;;;;5078011;28;20509;-79
2023/06/01 09:31:55;;;;;;;11.57;2.63;;;13.40;99.90;;;;;;5078045;28;20060;-78
2023/06/01 09:34:21;;;;;;;6.07;2.67;;;13.40;99.90;;;;;;5096068;28;20052;-77
2023/06/01 09:36:52;;;;;;;15.32;2.60;;;13.40;99.90;;;;;;5096008;28;20090;-78
2023/06/01 09:39:20;;;;;;;9.35;2.10;;;13.50;99.90;;;;;;5095831;28;20040;-78
2023/06/01 09:41:52;;;;;;;9.30;2.45;;;13.60;99.90;;;;;;5095325;28;20056;-79
2023/06/01 09:44:28;;;;;;;6.88;2.00;;;13.50;99.90;;;;;;5077691;28;20406;-79
2023/06/01 09:47:02;;;;;;;11.18;2.47;;;13.60;99.90;;;;;;5078663;28;20507;-80
2023/06/01 09:49:39;;;;;;;14.40;3.45;;;13.60;99.90;;;;;;5095820;28;20086;-79
2023/06/01 09:52:04;;;;;;;7.90;3.15;;;13.60;99.90;;;;;;5077896;28;20051;-79
2023/06/01 09:54:31;;;;;;;8.48;2.35;;;13.50;99.90;;;;;;5077881;28;20047;-80
2023/06/01 09:57:07;;;;;;;8.93;2.45;;;13.60;99.90;;;;;;5077754;28;20059;-80
2023/06/01 09:59:46;;;;;;;9.30;3.28;;;13.60;99.90;;;;;;5077463;28;20040;-80
2023/06/01 10:02:18;;;;;;;8.50;2.80;;;13.70;99.90;;;;;;5095445;28;20051;-82
2023/06/01 10:05:02;;;;;;;14.13;2.33;;;13.80;99.90;;;;;;5077345;28;20056;-79
2023/06/01 10:07:31;;;;;;;6.78;2.60;;;13.80;99.90;;;;;;5077588;28;20109;-79
2023/06/01 10:09:58;;;;;;;8.77;2.70;;;13.80;99.90;;;;;;5077563;28;20055;-80
2023/06/01 10:12:28;;;;;;;7.20;2.97;;;13.80;99.90;;;;;;5077219;28;20123;-79
2023/06/01 10:14:55;;;;;;;10.98;3.35;;;13.70;99.90;;;;;;5076454;28;20130;-80
2023/06/01 10:17:21;;;;;;;10.90;2.92;;;13.80;99.90;;;;;;5077145;28;20056;-79
2023/06/01 10:19:48;;;;;;;9.68;2.83;;;13.90;99.90;;;;;;5095468;28;20036;-79
2023/06/01 10:22:14;;;;;;;9.25;2.85;;;13.90;99.90;;;;;;5077061;28;20048;-79
2023/06/01 10:24:41;;;;;;;8.93;2.80;;;13.90;99.90;;;;;;5095383;28;20063;-79
2023/06/01 10:27:26;;;;;;;9.07;2.75;;;13.90;99.90;;;;;;5094886;28;20040;-79
2023/06/01 10:29:56;;;;;;;9.32;3.25;;;13.90;99.90;;;;;;5076937;28;20063;-79
2023/06/01 10:32:40;;;;;;;7.22;2.80;;;13.90;99.90;;;;;;5076861;28;20083;-78
2023/06/01 10:35:12;;;;;;;12.15;3.22;;;13.90;99.90;;;;;;5094815;28;20551;-80
2023/06/01 10:37:38;;;;;;;13.00;2.80;;;13.90;99.90;;;;;;5076839;28;20513;-80
2023/06/01 10:40:16;;;;;;;7.53;2.72;;;14.00;99.90;;;;;;5076987;28;20048;-78
2023/06/01 10:42:45;;;;;;;12.50;3.45;;;13.90;99.90;;;;;;5076405;28;20048;-81
2023/06/01 10:45:40;;;;;;;11.02;3.33;;;14.00;99.90;;;;;;5076463;28;20530;-89
2023/06/01 10:48:10;;;;;;;7.50;3.63;;;14.00;99.90;;;;;;5081587;28;20493;-80
2023/06/01 10:50:37;;;;;;;8.63;3.03;;;14.00;99.90;;;;;;5076402;28;20044;-80
2023/06/01 10:53:28;;;;;;;9.50;2.85;;;14.00;99.90;;;;;;5076325;28;20048;-79
2023/06/01 10:56:16;;;;;;;12.45;2.92;;;14.00;99.90;;;;;;5076353;28;20044;-80
2023/06/01 10:58:42;;;;;;;9.05;3.28;;;14.10;99.90;;;;;;5094411;28;20467;-79
2023/06/01 11:01:10;;;;;;;11.30;3.92;;;14.00;99.90;;;;;;5076300;28;20083;-80
2023/06/01 11:03:49;;;;;;;11.40;2.63;;;14.10;99.90;;;;;;5076353;28;20048;-80
2023/06/01 11:06:26;;;;;;;9.48;3.53;;;14.30;99.90;;;;;;5094702;28;20051;-79
2023/06/01 11:08:54;;;;;;;9.43;3.10;;;14.20;99.90;;;;;;5076265;28;20055;-79
2023/06/01 11:11:20;;;;;;;7.28;2.63;;;14.30;99.90;;;;;;5094307;28;20043;-81
2023/06/01 11:14:08;;;;;;;8.30;2.40;;;14.30;99.90;;;;;;5076229;28;20127;-80
2023/06/01 11:16:34;;;;;;;11.77;2.88;;;14.30;99.90;;;;;;5076003;28;20075;-80
2023/06/01 11:19:04;;;;;;;7.47;2.70;;;14.10;99.90;;;;;;5076116;28;20091;-80
2023/06/01 11:21:35;;;;;;;7.63;2.65;;;14.10;99.90;;;;;;5075902;28;20047;-80
2023/06/01 11:24:08;;;;;;;7.90;2.78;;;14.00;99.90;;;;;;5075723;28;20048;-81
2023/06/01 11:26:42;;;;;;;8.05;3.63;;;14.00;99.90;;;;;;5075746;28;20066;-79
2023/06/01 11:29:22;;;;;;;6.88;2.80;;;14.00;99.90;;;;;;5076023;28;20047;-77
2023/06/01 11:31:55;;;;;;;7.35;2.55;;;14.10;99.90;;;;;;5075657;28;20051;-78
2023/06/01 11:34:43;;;;;;;5.03;1.70;;;14.20;99.90;;;;;;5075587;28;20449;-78
2023/06/01 11:37:17;;;;;;;5.13;2.72;;;14.20;99.90;;;;;;5076050;28;20066;-79
2023/06/01 11:39:47;;;;;;;8.60;3.60;;;14.30;99.90;;;;;;5075803;28;20074;-78
2023/06/01 11:42:18;;;;;;;6.38;2.85;;;14.20;99.90;;;;;;5075202;28;20062;-79
2023/06/01 11:44:46;;;;;;;9.40;2.50;;;14.20;99.90;;;;;;5075376;28;20047;-78
2023/06/01 11:47:12;;;;;;;8.13;3.20;;;14.20;99.90;;;;;;5075790;28;20068;-78
2023/06/01 11:49:49;;;;;;;11.80;3.50;;;14.20;99.90;;;;;;5093590;28;20076;-78
2023/06/01 11:52:15;;;;;;;13.23;3.30;;;14.20;99.90;;;;;;5075453;28;20119;-80
2023/06/01 11:54:41;;;;;;;12.15;3.40;;;14.10;99.90;;;;;;5075382;28;20052;-78
2023/06/01 11:57:08;;;;;;;14.30;3.30;;;14.20;99.90;;;;;;5075559;28;20099;-78
2023/06/01 11:59:41;;;;;;;19.85;4.07;;;14.20;99.90;;;;;;5075731;28;20036;-78
2023/06/01 12:02:24;;;;;;;12.20;3.03;;;14.20;99.90;;;;;;5075353;28;20108;-79
2023/06/01 12:04:58;;;;;;;16.92;3.35;;;14.10;99.90;;;;;;5075047;28;20055;-78
2023/06/01 12:07:24;;;;;;;9.63;2.95;;;14.10;99.90;;;;;;5075329;28;20040;-79
2023/06/01 12:09:54;;;;;;;8.27;2.47;;;14.10;99.90;;;;;;5093386;28;20456;-78
2023/06/01 12:12:25;;;;;;;10.18;2.90;;;14.10;99.90;;;;;;5075545;28;20050;-80
2023/06/01 12:14:51;;;;;;;11.90;3.20;;;14.20;99.90;;;;;;5075496;28;20051;-79
2023/06/01 12:17:18;;;;;;;12.52;2.95;;;14.20;99.90;;;;;;5075123;28;20048;-79
2023/06/01 12:19:46;;;;;;;8.48;2.83;;;14.30;99.90;;;;;;5093306;28;20090;-78
2023/06/01 12:22:12;;;;;;;11.60;2.88;;;14.50;99.90;;;;;;5075308;28;20052;-78
2023/06/01 12:24:38;;;;;;;6.07;2.45;;;14.40;99.90;;;;;;5075097;28;20084;-77
2023/06/01 12:27:19;;;;;;;6.82;2.53;;;14.60;99.90;;;;;;5075001;28;20082;-78
2023/06/01 12:29:47;;;;;;;8.05;2.30;;;14.60;99.90;;;;;;5075120;28;20047;-78
2023/06/01 12:32:15;;;;;;;15.35;3.60;;;14.60;99.90;;;;;;5075163;28;20479;-79
2023/06/01 12:34:48;;;;;;;10.68;2.55;;;14.70;99.90;;;;;;5075023;28;20115;-79
2023/06/01 12:37:18;;;;;;;7.82;2.90;;;14.70;99.90;;;;;;5075229;28;20055;-79
2023/06/01 12:39:53;;;;;;;11.82;2.45;;;14.80;99.90;;;;;;5075329;28;20062;-78
2023/06/01 12:42:39;;;;;;;9.15;3.05;;;14.80;99.90;;;;;;5074802;28;20388;-77
2023/06/01 12:45:07;;;;;;;7.30;2.58;;;14.80;99.90;;;;;;5074862;28;20086;-78
2023/06/01 12:47:40;;;;;;;8.32;3.22;;;14.90;99.90;;;;;;5093002;28;20429;-78
2023/06/01 12:50:08;;;;;;;11.23;3.22;;;14.90;99.90;;;;;;5074822;28;20072;-78
2023/06/01 12:52:35;;;;;;;7.05;2.60;;;14.90;99.90;;;;;;5075038;28;20091;-79
2023/06/01 12:55:03;;;;;;;10.18;2.28;;;14.90;99.90;;;;;;5092894;28;20116;-79
2023/06/01 12:57:29;;;;;;;7.82;2.90;;;14.80;99.90;;;;;;5074861;28;20059;-78
2023/06/01 12:59:55;;;;;;;9.65;2.10;;;14.90;99.90;;;;;;5075104;28;20517;-81
2023/06/01 13:02:21;;;;;;;8.40;2.42;;;14.90;99.90;;;;;;5075140;28;20146;-78
2023/06/01 13:04:46;;;;;;;9.95;2.83;;;14.90;99.90;;;;;;5092945;28;20048;-79
2023/06/01 13:07:12;;;;;;;11.07;2.60;;;14.90;99.90;;;;;;5074712;28;20047;-79
2023/06/01 13:09:38;;;;;;;7.15;2.70;;;14.80;99.90;;;;;;5092949;28;20044;-78
2023/06/01 13:12:07;;;;;;;11.02;2.90;;;14.60;99.90;;;;;;5074917;28;20046;-79
2023/06/01 13:14:33;;;;;;;7.15;1.92;;;14.70;99.90;;;;;;5074821;28;20135;-79
2023/06/01 13:16:59;;;;;;;5.40;2.35;;;14.70;99.90;;;;;;5078170;28;20123;-79
2023/06/01 13:19:25;;;;;;;8.40;2.53;;;14.50;99.90;;;;;;5096694;28;20123;-80
2023/06/01 13:21:51;;;;;;;9.65;2.60;;;14.60;99.90;;;;;;5078481;28;20066;-80
2023/06/01 13:24:17;;;;;;;7.00;2.10;;;14.60;99.90;;;;;;5078188;28;20055;-79
2023/06/01 13:26:43;;;;;;;7.32;2.50;;;14.50;99.90;;;;;;5078023;28;20048;-80
2023/06/01 13:29:10;;;;;;;8.38;3.70;;;14.60;99.90;;;;;;5078030;28;20036;-81
2023/06/01 13:31:37;;;;;;;10.90;2.42;;;14.40;99.90;;;;;;5078048;28;20398;-80